sensor_id;sensor_type;location;lat;lon;timestamp;temperature;humidity
17215;DHT22;8723;51.502;6.918;2023-07-09T00:01:45;22.50;1.00
17215;DHT22;8723;51.502;6.918;2023-07-09T00:04:14;22.50;1.00
17215;DHT22;8723;51.502;6.918;2023-07-09T00:06:41;22.40;1.00
17215;DHT22;8723;51.502;6.918;2023-07-09T00:09:13;22.40;1.00
17215;DHT22;8723;51.502;6.918;2023-07-09T00:11:40;22.30;1.00
17215;DHT22;8723;51.502;6.918;2023-07-09T00:14:08;22.20;1.00
17215;DHT22;8723;51.502;6.918;2023-07-09T00:16:35;22.30;1.00
17215;DHT22;8723;51.502;6.918;2023-07-09T00:19:03;22.30;1.00
17215;DHT22;8723;51.502;6.918;2023-07-09T00:21:31;22.20;1.00
17215;DHT22;8723;51.502;6.918;2023-07-09T00:24:00;22.20;1.00
17215;DHT22;8723;51.502;6.918;2023-07-09T00:26:30;22.20;1.00
17215;DHT22;8723;51.502;6.918;2023-07-09T00:28:57;22.20;1.00
17215;DHT22;8723;51.502;6.918;2023-07-09T00:31:26;22.10;1.00
17215;DHT22;8723;51.502;6.918;2023-07-09T00:33:54;22.10;1.00
17215;DHT22;8723;51.502;6.918;2023-07-09T00:36:26;22.10;1.00
17215;DHT22;8723;51.502;6.918;2023-07-09T00:38:55;22.00;1.00
17215;DHT22;8723;51.502;6.918;2023-07-09T00:41:25;22.00;1.00
17215;DHT22;8723;51.502;6.918;2023-07-09T00:43:54;22.00;1.00
17215;DHT22;8723;51.502;6.918;2023-07-09T00:49:29;21.90;1.00
17215;DHT22;8723;51.502;6.918;2023-07-09T00:52:00;21.90;1.00
17215;DHT22;8723;51.502;6.918;2023-07-09T00:54:32;21.80;1.00
17215;DHT22;8723;51.502;6.918;2023-07-09T00:57:06;21.90;1.00
17215;DHT22;8723;51.502;6.918;2023-07-09T00:59:35;21.90;1.00
17215;DHT22;8723;51.502;6.918;2023-07-09T01:02:03;21.80;1.00
17215;DHT22;8723;51.502;6.918;2023-07-09T01:04:30;21.80;1.00
17215;DHT22;8723;51.502;6.918;2023-07-09T01:06:57;21.80;1.00
17215;DHT22;8723;51.502;6.918;2023-07-09T01:09:24;21.70;1.00
17215;DHT22;8723;51.502;6.918;2023-07-09T01:11:53;21.70;1.00
17215;DHT22;8723;51.502;6.918;2023-07-09T01:14:24;21.70;1.00
17215;DHT22;8723;51.502;6.918;2023-07-09T01:16:55;21.70;1.00
17215;DHT22;8723;51.502;6.918;2023-07-09T01:19:24;21.60;1.00
17215;DHT22;8723;51.502;6.918;2023-07-09T01:21:54;21.60;1.00
17215;DHT22;8723;51.502;6.918;2023-07-09T01:24:48;21.60;1.00
17215;DHT22;8723;51.502;6.918;2023-07-09T01:27:17;21.50;1.00
17215;DHT22;8723;51.502;6.918;2023-07-09T01:29:44;21.50;1.00
17215;DHT22;8723;51.502;6.918;2023-07-09T01:32:15;21.50;1.00
17215;DHT22;8723;51.502;6.918;2023-07-09T01:34:44;21.50;1.00
17215;DHT22;8723;51.502;6.918;2023-07-09T01:37:15;21.50;1.00
17215;DHT22;8723;51.502;6.918;2023-07-09T01:39:42;21.50;1.00
17215;DHT22;8723;51.502;6.918;2023-07-09T01:42:10;21.50;1.00
17215;DHT22;8723;51.502;6.918;2023-07-09T01:44:39;21.50;1.00
17215;DHT22;8723;51.502;6.918;2023-07-09T01:47:08;21.40;1.00
17215;DHT22;8723;51.502;6.918;2023-07-09T01:49:37;21.40;1.00
17215;DHT22;8723;51.502;6.918;2023-07-09T01:52:08;21.30;1.00
17215;DHT22;8723;51.502;6.918;2023-07-09T01:54:41;21.30;1.00
17215;DHT22;8723;51.502;6.918;2023-07-09T01:57:18;21.20;1.00
17215;DHT22;8723;51.502;6.918;2023-07-09T01:59:50;21.20;1.00
17215;DHT22;8723;51.502;6.918;2023-07-09T02:02:20;21.20;1.00
17215;DHT22;8723;51.502;6.918;2023-07-09T02:04:50;21.10;1.00
17215;DHT22;8723;51.502;6.918;2023-07-09T02:07:19;21.20;1.00
17215;DHT22;8723;51.502;6.918;2023-07-09T02:09:51;21.20;1.00
17215;DHT22;8723;51.502;6.918;2023-07-09T02:12:18;21.20;1.00
17215;DHT22;8723;51.502;6.918;2023-07-09T02:14:46;21.20;1.00
17215;DHT22;8723;51.502;6.918;2023-07-09T02:17:16;21.10;1.00
17215;DHT22;8723;51.502;6.918;2023-07-09T02:19:46;21.10;1.00
17215;DHT22;8723;51.502;6.918;2023-07-09T02:22:16;21.00;1.00
17215;DHT22;8723;51.502;6.918;2023-07-09T02:24:45;21.00;1.00
17215;DHT22;8723;51.502;6.918;2023-07-09T02:27:16;21.00;1.00
17215;DHT22;8723;51.502;6.918;2023-07-09T02:29:44;21.00;1.00
17215;DHT22;8723;51.502;6.918;2023-07-09T02:32:18;21.00;1.00
17215;DHT22;8723;51.502;6.918;2023-07-09T02:34:47;20.90;1.00
17215;DHT22;8723;51.502;6.918;2023-07-09T02:37:19;20.90;1.00
17215;DHT22;8723;51.502;6.918;2023-07-09T02:39:46;20.80;1.00
17215;DHT22;8723;51.502;6.918;2023-07-09T02:42:17;20.80;1.00
17215;DHT22;8723;51.502;6.918;2023-07-09T02:44:45;20.70;1.00
17215;DHT22;8723;51.502;6.918;2023-07-09T02:47:13;20.70;1.00
17215;DHT22;8723;51.502;6.918;2023-07-09T02:49:40;20.70;1.00
17215;DHT22;8723;51.502;6.918;2023-07-09T02:52:07;20.60;1.00
17215;DHT22;8723;51.502;6.918;2023-07-09T02:54:35;20.60;1.00
17215;DHT22;8723;51.502;6.918;2023-07-09T02:57:02;20.70;1.00
17215;DHT22;8723;51.502;6.918;2023-07-09T02:59:30;20.70;1.00
17215;DHT22;8723;51.502;6.918;2023-07-09T03:01:59;20.70;1.00
17215;DHT22;8723;51.502;6.918;2023-07-09T03:04:28;20.70;1.00
17215;DHT22;8723;51.502;6.918;2023-07-09T03:06:57;20.70;1.00
17215;DHT22;8723;51.502;6.918;2023-07-09T03:09:27;20.50;1.00
17215;DHT22;8723;51.502;6.918;2023-07-09T03:11:56;20.40;1.00
17215;DHT22;8723;51.502;6.918;2023-07-09T03:14:24;20.30;1.00
17215;DHT22;8723;51.502;6.918;2023-07-09T03:16:52;20.40;1.00
17215;DHT22;8723;51.502;6.918;2023-07-09T03:19:19;20.30;1.00
17215;DHT22;8723;51.502;6.918;2023-07-09T03:21:46;20.30;1.00
17215;DHT22;8723;51.502;6.918;2023-07-09T03:24:13;20.30;1.00
17215;DHT22;8723;51.502;6.918;2023-07-09T03:26:44;20.30;1.00
17215;DHT22;8723;51.502;6.918;2023-07-09T03:29:11;20.30;1.00
17215;DHT22;8723;51.502;6.918;2023-07-09T03:31:38;20.20;1.00
17215;DHT22;8723;51.502;6.918;2023-07-09T03:34:06;20.30;1.00
17215;DHT22;8723;51.502;6.918;2023-07-09T03:36:33;20.30;1.00
17215;DHT22;8723;51.502;6.918;2023-07-09T03:39:02;20.20;1.00
17215;DHT22;8723;51.502;6.918;2023-07-09T03:41:29;20.10;1.00
17215;DHT22;8723;51.502;6.918;2023-07-09T03:43:56;20.10;1.00
17215;DHT22;8723;51.502;6.918;2023-07-09T03:46:23;20.10;1.00
17215;DHT22;8723;51.502;6.918;2023-07-09T03:48:49;20.20;1.00
17215;DHT22;8723;51.502;6.918;2023-07-09T03:51:18;20.20;1.00
17215;DHT22;8723;51.502;6.918;2023-07-09T03:53:45;20.20;1.00
17215;DHT22;8723;51.502;6.918;2023-07-09T03:56:11;20.30;1.00
17215;DHT22;8723;51.502;6.918;2023-07-09T03:58:38;20.20;1.00
17215;DHT22;8723;51.502;6.918;2023-07-09T04:01:05;20.10;1.00
17215;DHT22;8723;51.502;6.918;2023-07-09T04:03:32;20.00;1.00
17215;DHT22;8723;51.502;6.918;2023-07-09T04:05:59;20.00;1.00
17215;DHT22;8723;51.502;6.918;2023-07-09T04:08:27;20.10;1.00
17215;DHT22;8723;51.502;6.918;2023-07-09T04:10:54;20.10;1.00
17215;DHT22;8723;51.502;6.918;2023-07-09T04:13:25;20.20;1.00
17215;DHT22;8723;51.502;6.918;2023-07-09T04:15:52;20.20;1.00
17215;DHT22;8723;51.502;6.918;2023-07-09T04:18:19;20.10;1.00
17215;DHT22;8723;51.502;6.918;2023-07-09T04:20:48;20.10;1.00
17215;DHT22;8723;51.502;6.918;2023-07-09T04:23:15;20.20;1.00
17215;DHT22;8723;51.502;6.918;2023-07-09T04:25:43;20.30;1.00
17215;DHT22;8723;51.502;6.918;2023-07-09T04:28:10;20.20;1.00
17215;DHT22;8723;51.502;6.918;2023-07-09T04:30:37;20.20;1.00
17215;DHT22;8723;51.502;6.918;2023-07-09T04:33:05;20.20;1.00
17215;DHT22;8723;51.502;6.918;2023-07-09T04:35:31;20.30;1.00
17215;DHT22;8723;51.502;6.918;2023-07-09T04:37:58;20.30;1.00
17215;DHT22;8723;51.502;6.918;2023-07-09T04:40:25;20.40;1.00
17215;DHT22;8723;51.502;6.918;2023-07-09T04:42:53;20.50;1.00
17215;DHT22;8723;51.502;6.918;2023-07-09T04:45:20;20.50;1.00
17215;DHT22;8723;51.502;6.918;2023-07-09T04:47:47;20.50;1.00
17215;DHT22;8723;51.502;6.918;2023-07-09T04:50:13;20.50;1.00
17215;DHT22;8723;51.502;6.918;2023-07-09T04:52:40;20.50;1.00
17215;DHT22;8723;51.502;6.918;2023-07-09T04:55:07;20.60;1.00
17215;DHT22;8723;51.502;6.918;2023-07-09T04:57:34;20.60;1.00
17215;DHT22;8723;51.502;6.918;2023-07-09T05:00:03;20.70;1.00
17215;DHT22;8723;51.502;6.918;2023-07-09T05:02:31;20.70;1.00
17215;DHT22;8723;51.502;6.918;2023-07-09T05:04:58;20.80;1.00
17215;DHT22;8723;51.502;6.918;2023-07-09T05:07:25;20.80;1.00
17215;DHT22;8723;51.502;6.918;2023-07-09T05:09:52;20.80;1.00
17215;DHT22;8723;51.502;6.918;2023-07-09T05:12:19;20.90;1.00
17215;DHT22;8723;51.502;6.918;2023-07-09T05:14:46;20.90;1.00
17215;DHT22;8723;51.502;6.918;2023-07-09T05:17:14;21.00;1.00
17215;DHT22;8723;51.502;6.918;2023-07-09T05:19:42;21.00;1.00
17215;DHT22;8723;51.502;6.918;2023-07-09T05:22:08;21.10;1.00
17215;DHT22;8723;51.502;6.918;2023-07-09T05:24:35;21.10;1.00
17215;DHT22;8723;51.502;6.918;2023-07-09T05:27:04;21.20;1.00
17215;DHT22;8723;51.502;6.918;2023-07-09T05:29:31;21.20;1.00
17215;DHT22;8723;51.502;6.918;2023-07-09T05:31:58;21.30;1.00
17215;DHT22;8723;51.502;6.918;2023-07-09T05:34:26;21.40;1.00
17215;DHT22;8723;51.502;6.918;2023-07-09T05:36:53;21.40;1.00
17215;DHT22;8723;51.502;6.918;2023-07-09T05:39:20;21.50;1.00
17215;DHT22;8723;51.502;6.918;2023-07-09T05:41:47;21.50;1.00
17215;DHT22;8723;51.502;6.918;2023-07-09T05:44:14;21.60;1.00
17215;DHT22;8723;51.502;6.918;2023-07-09T05:46:40;21.60;1.00
17215;DHT22;8723;51.502;6.918;2023-07-09T05:49:07;21.70;1.00
17215;DHT22;8723;51.502;6.918;2023-07-09T05:51:35;21.70;1.00
17215;DHT22;8723;51.502;6.918;2023-07-09T05:54:02;21.80;1.00
17215;DHT22;8723;51.502;6.918;2023-07-09T05:56:29;21.80;1.00
17215;DHT22;8723;51.502;6.918;2023-07-09T05:58:56;21.90;1.00
17215;DHT22;8723;51.502;6.918;2023-07-09T06:01:23;21.90;1.00
17215;DHT22;8723;51.502;6.918;2023-07-09T06:03:50;22.00;1.00
17215;DHT22;8723;51.502;6.918;2023-07-09T06:06:16;22.00;1.00
17215;DHT22;8723;51.502;6.918;2023-07-09T06:08:45;22.10;1.00
17215;DHT22;8723;51.502;6.918;2023-07-09T06:11:12;22.20;1.00
17215;DHT22;8723;51.502;6.918;2023-07-09T06:13:39;22.20;1.00
17215;DHT22;8723;51.502;6.918;2023-07-09T06:16:06;22.30;1.00
17215;DHT22;8723;51.502;6.918;2023-07-09T06:18:33;22.40;1.00
17215;DHT22;8723;51.502;6.918;2023-07-09T06:21:01;22.50;1.00
17215;DHT22;8723;51.502;6.918;2023-07-09T06:23:29;22.50;1.00
17215;DHT22;8723;51.502;6.918;2023-07-09T06:25:57;22.70;1.00
17215;DHT22;8723;51.502;6.918;2023-07-09T06:28:26;22.80;1.00
17215;DHT22;8723;51.502;6.918;2023-07-09T06:30:54;22.90;1.00
17215;DHT22;8723;51.502;6.918;2023-07-09T06:33:21;22.90;1.00
17215;DHT22;8723;51.502;6.918;2023-07-09T06:35:48;23.00;1.00
17215;DHT22;8723;51.502;6.918;2023-07-09T06:38:15;23.10;1.00
17215;DHT22;8723;51.502;6.918;2023-07-09T06:40:42;23.20;1.00
17215;DHT22;8723;51.502;6.918;2023-07-09T06:43:11;23.30;1.00
17215;DHT22;8723;51.502;6.918;2023-07-09T06:45:38;23.40;1.00
17215;DHT22;8723;51.502;6.918;2023-07-09T06:48:05;23.50;1.00
17215;DHT22;8723;51.502;6.918;2023-07-09T06:50:36;23.50;1.00
17215;DHT22;8723;51.502;6.918;2023-07-09T06:53:03;23.80;1.00
17215;DHT22;8723;51.502;6.918;2023-07-09T06:55:29;23.90;1.00
17215;DHT22;8723;51.502;6.918;2023-07-09T06:57:57;23.90;1.00
17215;DHT22;8723;51.502;6.918;2023-07-09T07:00:25;24.00;1.00
17215;DHT22;8723;51.502;6.918;2023-07-09T07:02:52;24.00;1.00
17215;DHT22;8723;51.502;6.918;2023-07-09T07:05:18;24.10;1.00
17215;DHT22;8723;51.502;6.918;2023-07-09T07:07:45;24.20;1.00
17215;DHT22;8723;51.502;6.918;2023-07-09T07:10:12;24.30;1.00
17215;DHT22;8723;51.502;6.918;2023-07-09T07:12:43;24.30;1.00
17215;DHT22;8723;51.502;6.918;2023-07-09T07:15:12;24.50;1.00
17215;DHT22;8723;51.502;6.918;2023-07-09T07:17:41;24.60;1.00
17215;DHT22;8723;51.502;6.918;2023-07-09T07:20:10;24.70;1.00
17215;DHT22;8723;51.502;6.918;2023-07-09T07:22:37;24.80;1.00
17215;DHT22;8723;51.502;6.918;2023-07-09T07:25:06;24.90;1.00
17215;DHT22;8723;51.502;6.918;2023-07-09T07:27:33;25.20;1.00
17215;DHT22;8723;51.502;6.918;2023-07-09T07:30:00;25.20;1.00
17215;DHT22;8723;51.502;6.918;2023-07-09T07:32:27;25.20;1.00
17215;DHT22;8723;51.502;6.918;2023-07-09T07:34:55;25.30;1.00
17215;DHT22;8723;51.502;6.918;2023-07-09T07:37:22;25.30;1.00
17215;DHT22;8723;51.502;6.918;2023-07-09T07:39:49;25.40;1.00
17215;DHT22;8723;51.502;6.918;2023-07-09T07:42:15;25.50;1.00
17215;DHT22;8723;51.502;6.918;2023-07-09T07:44:42;25.70;1.00
17215;DHT22;8723;51.502;6.918;2023-07-09T07:47:09;25.70;1.00
17215;DHT22;8723;51.502;6.918;2023-07-09T07:49:37;26.00;1.00
17215;DHT22;8723;51.502;6.918;2023-07-09T07:52:06;26.20;1.00
17215;DHT22;8723;51.502;6.918;2023-07-09T07:54:34;26.40;1.00
17215;DHT22;8723;51.502;6.918;2023-07-09T07:57:01;26.50;1.00
17215;DHT22;8723;51.502;6.918;2023-07-09T07:59:27;26.50;1.00
17215;DHT22;8723;51.502;6.918;2023-07-09T08:01:54;26.60;1.00
17215;DHT22;8723;51.502;6.918;2023-07-09T08:04:21;26.60;1.00
17215;DHT22;8723;51.502;6.918;2023-07-09T08:06:48;26.80;1.00
17215;DHT22;8723;51.502;6.918;2023-07-09T08:09:16;26.90;1.00
17215;DHT22;8723;51.502;6.918;2023-07-09T08:11:43;27.00;1.00
17215;DHT22;8723;51.502;6.918;2023-07-09T08:14:10;27.10;1.00
17215;DHT22;8723;51.502;6.918;2023-07-09T08:16:37;27.20;1.00
17215;DHT22;8723;51.502;6.918;2023-07-09T08:19:04;27.40;1.00
17215;DHT22;8723;51.502;6.918;2023-07-09T08:21:31;27.60;1.00
17215;DHT22;8723;51.502;6.918;2023-07-09T08:23:57;27.80;1.00
17215;DHT22;8723;51.502;6.918;2023-07-09T08:26:26;28.00;1.00
17215;DHT22;8723;51.502;6.918;2023-07-09T08:28:54;28.10;1.00
17215;DHT22;8723;51.502;6.918;2023-07-09T08:31:20;28.30;1.00
17215;DHT22;8723;51.502;6.918;2023-07-09T08:33:47;28.40;1.00
17215;DHT22;8723;51.502;6.918;2023-07-09T08:36:14;28.50;1.00
17215;DHT22;8723;51.502;6.918;2023-07-09T08:38:41;28.60;1.00
17215;DHT22;8723;51.502;6.918;2023-07-09T08:41:15;28.70;1.00
17215;DHT22;8723;51.502;6.918;2023-07-09T08:43:52;28.80;1.00
17215;DHT22;8723;51.502;6.918;2023-07-09T08:46:29;29.00;1.00
17215;DHT22;8723;51.502;6.918;2023-07-09T08:48:58;29.20;1.00
17215;DHT22;8723;51.502;6.918;2023-07-09T08:51:34;29.20;1.00
17215;DHT22;8723;51.502;6.918;2023-07-09T08:54:01;29.30;1.00
17215;DHT22;8723;51.502;6.918;2023-07-09T08:56:32;29.50;1.00
17215;DHT22;8723;51.502;6.918;2023-07-09T08:59:02;29.60;1.00
17215;DHT22;8723;51.502;6.918;2023-07-09T09:01:33;29.70;1.00
17215;DHT22;8723;51.502;6.918;2023-07-09T09:04:04;29.80;1.00
17215;DHT22;8723;51.502;6.918;2023-07-09T09:06:32;30.00;1.00
17215;DHT22;8723;51.502;6.918;2023-07-09T09:09:04;30.00;1.00
17215;DHT22;8723;51.502;6.918;2023-07-09T09:11:43;30.20;1.00
17215;DHT22;8723;51.502;6.918;2023-07-09T09:14:23;30.40;1.00
17215;DHT22;8723;51.502;6.918;2023-07-09T09:16:53;30.50;1.00
17215;DHT22;8723;51.502;6.918;2023-07-09T09:19:23;30.60;1.00
17215;DHT22;8723;51.502;6.918;2023-07-09T09:21:56;30.50;1.00
17215;DHT22;8723;51.502;6.918;2023-07-09T09:24:27;30.30;1.00
17215;DHT22;8723;51.502;6.918;2023-07-09T09:26:58;29.70;1.00
17215;DHT22;8723;51.502;6.918;2023-07-09T09:29:27;29.30;1.00
17215;DHT22;8723;51.502;6.918;2023-07-09T09:31:55;29.30;1.00
17215;DHT22;8723;51.502;6.918;2023-07-09T09:34:25;29.20;1.00
17215;DHT22;8723;51.502;6.918;2023-07-09T09:36:52;29.20;1.00
17215;DHT22;8723;51.502;6.918;2023-07-09T09:39:20;29.30;1.00
17215;DHT22;8723;51.502;6.918;2023-07-09T09:41:47;29.50;1.00
17215;DHT22;8723;51.502;6.918;2023-07-09T09:44:18;29.60;1.00
17215;DHT22;8723;51.502;6.918;2023-07-09T09:46:47;30.10;1.00
17215;DHT22;8723;51.502;6.918;2023-07-09T09:49:14;30.20;1.00
17215;DHT22;8723;51.502;6.918;2023-07-09T09:51:44;30.40;1.00
17215;DHT22;8723;51.502;6.918;2023-07-09T09:54:16;30.60;1.00
17215;DHT22;8723;51.502;6.918;2023-07-09T09:56:43;30.70;1.00
17215;DHT22;8723;51.502;6.918;2023-07-09T09:59:17;30.70;1.00
17215;DHT22;8723;51.502;6.918;2023-07-09T10:01:46;30.70;1.00
17215;DHT22;8723;51.502;6.918;2023-07-09T10:04:18;30.70;1.00
17215;DHT22;8723;51.502;6.918;2023-07-09T10:06:48;30.80;1.00
17215;DHT22;8723;51.502;6.918;2023-07-09T10:09:24;30.90;1.00
17215;DHT22;8723;51.502;6.918;2023-07-09T10:11:57;31.10;1.00
17215;DHT22;8723;51.502;6.918;2023-07-09T10:14:33;31.10;1.00
17215;DHT22;8723;51.502;6.918;2023-07-09T10:17:07;31.20;1.00
17215;DHT22;8723;51.502;6.918;2023-07-09T10:19:43;31.30;1.00
17215;DHT22;8723;51.502;6.918;2023-07-09T10:22:20;31.30;1.00
17215;DHT22;8723;51.502;6.918;2023-07-09T10:24:56;31.60;1.00
17215;DHT22;8723;51.502;6.918;2023-07-09T10:27:29;31.70;1.00
17215;DHT22;8723;51.502;6.918;2023-07-09T10:30:15;31.70;1.00
17215;DHT22;8723;51.502;6.918;2023-07-09T10:32:54;31.70;1.00
17215;DHT22;8723;51.502;6.918;2023-07-09T10:35:29;31.70;1.00
17215;DHT22;8723;51.502;6.918;2023-07-09T10:40:50;31.90;1.00
17215;DHT22;8723;51.502;6.918;2023-07-09T10:43:25;32.00;1.00
17215;DHT22;8723;51.502;6.918;2023-07-09T10:45:56;31.90;1.00
17215;DHT22;8723;51.502;6.918;2023-07-09T10:48:33;31.90;1.00
17215;DHT22;8723;51.502;6.918;2023-07-09T10:51:02;32.10;1.00
17215;DHT22;8723;51.502;6.918;2023-07-09T10:53:33;32.20;1.00
17215;DHT22;8723;51.502;6.918;2023-07-09T10:56:04;32.10;1.00
17215;DHT22;8723;51.502;6.918;2023-07-09T10:58:37;32.10;1.00
17215;DHT22;8723;51.502;6.918;2023-07-09T11:01:06;32.20;1.00
17215;DHT22;8723;51.502;6.918;2023-07-09T11:03:38;32.40;1.00
17215;DHT22;8723;51.502;6.918;2023-07-09T11:06:14;32.40;1.00
17215;DHT22;8723;51.502;6.918;2023-07-09T11:08:43;32.30;1.00
17215;DHT22;8723;51.502;6.918;2023-07-09T11:11:17;32.30;1.00
17215;DHT22;8723;51.502;6.918;2023-07-09T11:13:50;32.70;1.00
17215;DHT22;8723;51.502;6.918;2023-07-09T11:16:25;32.70;1.00
17215;DHT22;8723;51.502;6.918;2023-07-09T11:19:00;32.60;1.00
17215;DHT22;8723;51.502;6.918;2023-07-09T11:21:28;32.50;1.00
17215;DHT22;8723;51.502;6.918;2023-07-09T11:23:57;32.70;1.00
17215;DHT22;8723;51.502;6.918;2023-07-09T11:26:27;32.80;1.00
17215;DHT22;8723;51.502;6.918;2023-07-09T11:28:55;32.80;1.00
17215;DHT22;8723;51.502;6.918;2023-07-09T11:31:25;32.80;1.00
17215;DHT22;8723;51.502;6.918;2023-07-09T11:34:02;32.70;1.00
17215;DHT22;8723;51.502;6.918;2023-07-09T11:36:30;32.80;1.00
17215;DHT22;8723;51.502;6.918;2023-07-09T11:38:58;32.70;1.00
17215;DHT22;8723;51.502;6.918;2023-07-09T11:41:34;32.80;1.00
17215;DHT22;8723;51.502;6.918;2023-07-09T11:44:12;33.00;1.00
17215;DHT22;8723;51.502;6.918;2023-07-09T11:46:52;33.10;1.00
17215;DHT22;8723;51.502;6.918;2023-07-09T11:49:25;33.20;1.00
17215;DHT22;8723;51.502;6.918;2023-07-09T11:51:57;33.20;1.00
17215;DHT22;8723;51.502;6.918;2023-07-09T11:54:25;33.20;1.00
17215;DHT22;8723;51.502;6.918;2023-07-09T11:56:56;33.30;1.00
17215;DHT22;8723;51.502;6.918;2023-07-09T11:59:23;33.50;1.00
17215;DHT22;8723;51.502;6.918;2023-07-09T12:01:52;33.50;1.00
17215;DHT22;8723;51.502;6.918;2023-07-09T12:04:23;33.50;1.00
17215;DHT22;8723;51.502;6.918;2023-07-09T12:06:57;33.80;1.00
17215;DHT22;8723;51.502;6.918;2023-07-09T12:09:31;33.80;1.00
17215;DHT22;8723;51.502;6.918;2023-07-09T12:11:58;34.10;1.00
17215;DHT22;8723;51.502;6.918;2023-07-09T12:14:25;34.10;1.00
17215;DHT22;8723;51.502;6.918;2023-07-09T12:16:53;34.30;1.00
17215;DHT22;8723;51.502;6.918;2023-07-09T12:19:23;34.40;1.00
17215;DHT22;8723;51.502;6.918;2023-07-09T12:21:53;34.40;1.00
17215;DHT22;8723;51.502;6.918;2023-07-09T12:24:23;34.40;1.00
17215;DHT22;8723;51.502;6.918;2023-07-09T12:26:52;34.60;1.00
17215;DHT22;8723;51.502;6.918;2023-07-09T12:29:19;34.60;1.00
17215;DHT22;8723;51.502;6.918;2023-07-09T12:31:45;34.50;1.00
17215;DHT22;8723;51.502;6.918;2023-07-09T12:34:13;34.40;1.00
17215;DHT22;8723;51.502;6.918;2023-07-09T12:36:46;34.30;1.00
17215;DHT22;8723;51.502;6.918;2023-07-09T12:39:16;34.30;1.00
17215;DHT22;8723;51.502;6.918;2023-07-09T12:41:44;34.40;1.00
17215;DHT22;8723;51.502;6.918;2023-07-09T12:44:16;34.40;1.00
17215;DHT22;8723;51.502;6.918;2023-07-09T12:46:44;34.40;1.00
17215;DHT22;8723;51.502;6.918;2023-07-09T12:49:21;34.50;1.00
17215;DHT22;8723;51.502;6.918;2023-07-09T12:51:50;34.50;1.00
17215;DHT22;8723;51.502;6.918;2023-07-09T12:54:19;34.70;1.00
17215;DHT22;8723;51.502;6.918;2023-07-09T12:56:49;34.90;1.00
17215;DHT22;8723;51.502;6.918;2023-07-09T12:59:18;35.00;1.00
17215;DHT22;8723;51.502;6.918;2023-07-09T13:01:50;35.00;1.00
17215;DHT22;8723;51.502;6.918;2023-07-09T13:04:17;35.00;1.00
17215;DHT22;8723;51.502;6.918;2023-07-09T13:06:45;34.90;1.00
17215;DHT22;8723;51.502;6.918;2023-07-09T13:09:19;34.80;1.00
17215;DHT22;8723;51.502;6.918;2023-07-09T13:11:47;34.60;1.00
17215;DHT22;8723;51.502;6.918;2023-07-09T13:14:20;34.60;1.00
17215;DHT22;8723;51.502;6.918;2023-07-09T13:16:48;34.60;1.00
17215;DHT22;8723;51.502;6.918;2023-07-09T13:19:15;34.40;1.00
17215;DHT22;8723;51.502;6.918;2023-07-09T13:21:42;34.30;1.00
17215;DHT22;8723;51.502;6.918;2023-07-09T13:24:16;34.20;1.00
17215;DHT22;8723;51.502;6.918;2023-07-09T13:26:43;34.10;1.00
17215;DHT22;8723;51.502;6.918;2023-07-09T13:29:13;34.10;1.00
17215;DHT22;8723;51.502;6.918;2023-07-09T13:31:41;33.90;1.00
17215;DHT22;8723;51.502;6.918;2023-07-09T13:34:17;33.90;1.00
17215;DHT22;8723;51.502;6.918;2023-07-09T13:36:44;33.80;1.00
17215;DHT22;8723;51.502;6.918;2023-07-09T13:39:11;33.80;1.00
17215;DHT22;8723;51.502;6.918;2023-07-09T13:41:42;33.70;1.00
17215;DHT22;8723;51.502;6.918;2023-07-09T13:44:12;33.60;1.00
17215;DHT22;8723;51.502;6.918;2023-07-09T13:46:39;33.40;1.00
17215;DHT22;8723;51.502;6.918;2023-07-09T13:49:09;33.30;1.00
17215;DHT22;8723;51.502;6.918;2023-07-09T13:51:37;33.20;1.00
17215;DHT22;8723;51.502;6.918;2023-07-09T13:54:12;33.10;1.00
17215;DHT22;8723;51.502;6.918;2023-07-09T13:56:41;32.90;1.00
17215;DHT22;8723;51.502;6.918;2023-07-09T13:59:13;32.70;1.00
17215;DHT22;8723;51.502;6.918;2023-07-09T14:01:40;32.60;1.00
17215;DHT22;8723;51.502;6.918;2023-07-09T14:04:10;32.40;1.00
17215;DHT22;8723;51.502;6.918;2023-07-09T14:06:37;32.30;1.00
17215;DHT22;8723;51.502;6.918;2023-07-09T14:09:04;32.10;1.00
17215;DHT22;8723;51.502;6.918;2023-07-09T14:11:32;32.00;1.00
17215;DHT22;8723;51.502;6.918;2023-07-09T14:14:01;31.90;1.00
17215;DHT22;8723;51.502;6.918;2023-07-09T14:16:28;31.40;1.00
17215;DHT22;8723;51.502;6.918;2023-07-09T14:18:55;30.60;1.00
17215;DHT22;8723;51.502;6.918;2023-07-09T14:21:24;29.90;1.00
17215;DHT22;8723;51.502;6.918;2023-07-09T14:23:52;28.10;1.00
17215;DHT22;8723;51.502;6.918;2023-07-09T14:26:18;26.60;1.00
17215;DHT22;8723;51.502;6.918;2023-07-09T14:28:45;25.30;1.00
17215;DHT22;8723;51.502;6.918;2023-07-09T14:31:21;24.20;1.00
17215;DHT22;8723;51.502;6.918;2023-07-09T14:33:49;23.50;99.90
17215;DHT22;8723;51.502;6.918;2023-07-09T14:36:16;22.60;99.90
17215;DHT22;8723;51.502;6.918;2023-07-09T14:38:43;21.90;99.90
17215;DHT22;8723;51.502;6.918;2023-07-09T14:41:19;21.70;99.90
17215;DHT22;8723;51.502;6.918;2023-07-09T14:43:47;21.20;99.90
17215;DHT22;8723;51.502;6.918;2023-07-09T14:46:14;21.20;99.90
17215;DHT22;8723;51.502;6.918;2023-07-09T14:48:42;21.30;99.90
17215;DHT22;8723;51.502;6.918;2023-07-09T14:51:13;21.70;99.90
17215;DHT22;8723;51.502;6.918;2023-07-09T14:53:41;22.00;99.90
17215;DHT22;8723;51.502;6.918;2023-07-09T14:56:10;22.00;99.90
17215;DHT22;8723;51.502;6.918;2023-07-09T14:58:37;21.60;99.90
17215;DHT22;8723;51.502;6.918;2023-07-09T15:01:04;21.50;99.90
17215;DHT22;8723;51.502;6.918;2023-07-09T15:03:31;21.60;99.90
17215;DHT22;8723;51.502;6.918;2023-07-09T15:05:59;21.90;99.90
17215;DHT22;8723;51.502;6.918;2023-07-09T15:08:28;22.00;99.90
17215;DHT22;8723;51.502;6.918;2023-07-09T15:10:55;22.10;99.90
17215;DHT22;8723;51.502;6.918;2023-07-09T15:13:27;22.30;99.90
17215;DHT22;8723;51.502;6.918;2023-07-09T15:15:55;22.30;99.90
17215;DHT22;8723;51.502;6.918;2023-07-09T15:18:22;22.50;99.90
17215;DHT22;8723;51.502;6.918;2023-07-09T15:20:51;22.50;99.90
17215;DHT22;8723;51.502;6.918;2023-07-09T15:23:20;22.40;99.90
17215;DHT22;8723;51.502;6.918;2023-07-09T15:25:49;22.40;99.90
17215;DHT22;8723;51.502;6.918;2023-07-09T15:28:16;22.30;99.90
17215;DHT22;8723;51.502;6.918;2023-07-09T15:30:43;22.40;99.90
17215;DHT22;8723;51.502;6.918;2023-07-09T15:33:14;22.40;99.90
17215;DHT22;8723;51.502;6.918;2023-07-09T15:35:43;22.50;99.90
17215;DHT22;8723;51.502;6.918;2023-07-09T15:38:24;22.70;99.90
17215;DHT22;8723;51.502;6.918;2023-07-09T15:40:51;22.60;99.90
17215;DHT22;8723;51.502;6.918;2023-07-09T15:43:18;22.80;99.90
17215;DHT22;8723;51.502;6.918;2023-07-09T15:45:46;23.00;99.90
17215;DHT22;8723;51.502;6.918;2023-07-09T15:48:21;23.00;99.90
17215;DHT22;8723;51.502;6.918;2023-07-09T15:50:49;22.70;99.90
17215;DHT22;8723;51.502;6.918;2023-07-09T15:53:16;22.50;99.90
17215;DHT22;8723;51.502;6.918;2023-07-09T15:55:44;22.40;99.90
17215;DHT22;8723;51.502;6.918;2023-07-09T15:58:17;22.50;99.90
17215;DHT22;8723;51.502;6.918;2023-07-09T16:00:45;22.40;99.90
17215;DHT22;8723;51.502;6.918;2023-07-09T16:03:12;22.50;99.90
17215;DHT22;8723;51.502;6.918;2023-07-09T16:05:39;22.50;99.90
17215;DHT22;8723;51.502;6.918;2023-07-09T16:08:06;22.50;99.90
17215;DHT22;8723;51.502;6.918;2023-07-09T16:10:33;22.60;99.90
17215;DHT22;8723;51.502;6.918;2023-07-09T16:13:01;22.50;99.90
17215;DHT22;8723;51.502;6.918;2023-07-09T16:15:28;22.20;99.90
17215;DHT22;8723;51.502;6.918;2023-07-09T16:17:55;22.50;99.90